Time;durP1;ratioP1;P1;durP2;ratioP2;P2;SDS_P1;SDS_P2;PMS_P1;PMS_P2;Temp;Humidity;BMP_temperature;BMP_pressure;BME280_temperature;BME280_humidity;BME280_pressure;Samples;Min_cycle;Max_cycle;Signal;HPM_P1;HPM_P2
2022/04/26 03:38:16;;;;;;;12.18;8.50;;;6.30;99.90;;;;;;5134073;27;20038;-83
2022/04/26 03:40:42;;;;;;;12.25;8.38;;;6.20;99.90;;;;;;5115552;27;20030;-83
2022/04/26 03:43:07;;;;;;;;;;;6.20;99.90;;;;;;5115864;27;20023;-84
2022/04/26 03:45:33;;;;;;;12.25;7.13;;;6.20;99.90;;;;;;5115250;27;19910;-84
2022/04/26 03:47:58;;;;;;;;;;;6.10;99.90;;;;;;5115754;27;20038;-84
2022/04/26 03:50:24;;;;;;;10.55;6.63;;;6.10;99.90;;;;;;5114641;27;19990;-84
2022/04/26 03:52:52;;;;;;;;;;;6.10;99.90;;;;;;5112909;27;20523;-84
2022/04/26 03:55:20;;;;;;;14.15;7.63;;;6.10;99.90;;;;;;5113704;27;19918;-84
2022/04/26 03:57:46;;;;;;;18.00;7.18;;;6.10;99.90;;;;;;5115129;27;20126;-84
2022/04/26 04:00:12;;;;;;;;;;;6.10;99.90;;;;;;5115129;28;20057;-80
2022/04/26 04:02:37;;;;;;;12.40;6.70;;;6.10;99.90;;;;;;5110571;27;19907;-82
2022/04/26 04:05:03;;;;;;;;;;;6.10;99.90;;;;;;5111228;27;20059;-80
2022/04/26 04:07:29;;;;;;;6.38;4.55;;;6.20;99.90;;;;;;5111650;27;19922;-80
2022/04/26 04:09:56;;;;;;;;;;;6.20;99.90;;;;;;5111804;27;20704;-81
2022/04/26 04:12:21;;;;;;;7.53;5.45;;;6.20;99.90;;;;;;5111011;27;19915;-82
2022/04/26 04:14:47;;;;;;;7.90;5.30;;;6.30;99.90;;;;;;5110736;27;20499;-80
2022/04/26 04:17:13;;;;;;;7.70;4.75;;;6.40;99.90;;;;;;5131633;27;20061;-84
2022/04/26 04:19:38;;;;;;;;;;;6.50;99.90;;;;;;5114720;27;20023;-84
2022/04/26 04:22:05;;;;;;;7.63;5.45;;;6.60;99.90;;;;;;5132537;28;19903;-85
2022/04/26 04:24:32;;;;;;;8.77;6.30;;;6.80;99.90;;;;;;5114498;28;20027;-85
2022/04/26 04:26:57;;;;;;;9.00;6.40;;;6.90;99.90;;;;;;5114681;28;20015;-85
2022/04/26 04:29:23;;;;;;;;;;;7.10;99.90;;;;;;5115664;28;20038;-86
2022/04/26 04:31:49;;;;;;;12.77;8.23;;;7.30;99.90;;;;;;5111605;28;19911;-83
2022/04/26 04:34:15;;;;;;;17.83;10.70;;;7.60;99.90;;;;;;5113845;28;20023;-83
2022/04/26 04:36:41;;;;;;;;;;;8.00;99.90;;;;;;5113747;28;20019;-83
2022/04/26 04:39:07;;;;;;;15.95;11.57;;;8.30;99.90;;;;;;5133007;28;19956;-84
2022/04/26 04:41:38;;;;;;;;;;;8.60;99.90;;;;;;5133664;28;20034;-84
2022/04/26 04:44:05;;;;;;;12.55;8.88;;;8.80;99.90;;;;;;5116563;27;20333;-83
2022/04/26 04:46:31;;;;;;;11.57;8.10;;;9.30;99.90;;;;;;5119267;27;20117;-84
2022/04/26 04:48:56;;;;;;;;;;;9.70;99.90;;;;;;5117240;27;20138;-82
2022/04/26 04:51:22;;;;;;;7.43;6.15;;;10.00;99.90;;;;;;5117650;27;19911;-83
2022/04/26 04:53:47;;;;;;;;;;;10.30;99.90;;;;;;5117804;27;20043;-82
2022/04/26 04:56:13;;;;;;;6.10;4.82;;;10.70;99.90;;;;;;5135672;27;19916;-84
2022/04/26 04:58:39;;;;;;;;;;;11.10;99.90;;;;;;5119242;27;20477;-85
2022/04/26 05:01:05;;;;;;;6.57;4.70;;;11.60;99.90;;;;;;5117306;27;19944;-82
2022/04/26 05:03:30;;;;;;;;;;;12.00;99.90;;;;;;5116625;27;20071;-82
2022/04/26 05:05:56;;;;;;;6.38;4.03;;;12.40;99.90;;;;;;5115797;27;20294;-82
2022/04/26 05:08:21;;;;;;;;;;;12.60;99.90;;;;;;5135597;27;20027;-82
2022/04/26 05:10:47;;;;;;;6.63;3.53;;;12.90;99.90;;;;;;5135517;27;19904;-83
2022/04/26 05:13:12;;;;;;;;;;;13.30;99.90;;;;;;5117987;27;20016;-84
2022/04/26 05:15:38;;;;;;;14.45;8.60;;;13.70;99.90;;;;;;5118375;27;20287;-85
2022/04/26 05:18:06;;;;;;;12.32;7.22;;;14.10;99.90;;;;;;5118030;27;20031;-84
2022/04/26 05:20:31;;;;;;;10.68;6.20;;;14.60;99.90;;;;;;5136572;27;20019;-85
2022/04/26 05:25:41;;;;;;;6.97;4.70;;;15.70;99.90;;;;;;5136552;27;20033;-85
2022/04/26 05:28:07;;;;;;;6.95;5.18;;;16.10;99.00;;;;;;5117975;27;20027;-85
2022/04/26 05:30:33;;;;;;;5.70;3.88;;;16.50;97.50;;;;;;5136248;27;20381;-85
2022/04/26 05:32:58;;;;;;;7.72;4.78;;;16.80;95.50;;;;;;5117785;27;20027;-85
2022/04/26 05:35:24;;;;;;;6.95;3.60;;;17.00;95.30;;;;;;5117052;27;20024;-83
2022/04/26 05:37:50;;;;;;;6.93;4.30;;;17.40;92.20;;;;;;5116054;27;20046;-84
2022/04/26 05:40:15;;;;;;;12.38;5.05;;;17.60;90.40;;;;;;5115768;27;20023;-84
2022/04/26 05:42:41;;;;;;;7.10;4.65;;;17.90;88.10;;;;;;5133990;27;20088;-84
2022/04/26 05:45:07;;;;;;;8.85;4.05;;;18.20;86.50;;;;;;5115570;27;20031;-83
2022/04/26 05:47:33;;;;;;;6.43;4.75;;;18.80;80.80;;;;;;5133778;27;20015;-84
2022/04/26 05:49:59;;;;;;;4.90;3.45;;;19.20;75.40;;;;;;5133756;27;20023;-82
2022/04/26 05:52:25;;;;;;;7.30;3.38;;;19.60;69.10;;;;;;5111569;27;20142;-84
2022/04/26 05:54:51;;;;;;;3.90;2.85;;;19.80;65.80;;;;;;5116454;27;20291;-85
2022/04/26 05:57:17;;;;;;;3.08;2.40;;;19.90;61.80;;;;;;5115955;27;20051;-84
2022/04/26 05:59:42;;;;;;;3.05;2.58;;;20.30;59.00;;;;;;5116053;27;20027;-84
2022/04/26 06:02:08;;;;;;;2.08;1.60;;;20.60;56.50;;;;;;5116098;27;20023;-84
2022/04/26 06:04:38;;;;;;;3.05;2.25;;;21.20;54.40;;;;;;5115650;27;20031;-85
2022/04/26 06:07:04;;;;;;;4.15;2.80;;;21.60;52.30;;;;;;5115701;27;20031;-85
2022/04/26 06:09:31;;;;;;;4.13;3.40;;;21.90;52.60;;;;;;5115515;27;20468;-82
2022/04/26 06:11:57;;;;;;;3.00;2.67;;;22.20;51.70;;;;;;5133853;27;20019;-81
2022/04/26 06:14:23;;;;;;;2.60;2.20;;;22.50;51.00;;;;;;5115586;27;20042;-83
2022/04/26 06:16:49;;;;;;;3.15;2.53;;;22.90;49.00;;;;;;5124874;27;20016;-81
2022/04/26 06:19:15;;;;;;;2.78;2.13;;;23.40;47.10;;;;;;5112755;27;20798;-82
2022/04/26 06:21:42;;;;;;;2.33;2.10;;;23.70;46.10;;;;;;5117308;27;20065;-84
2022/04/26 06:24:08;;;;;;;3.22;2.38;;;24.00;45.00;;;;;;5115045;27;20080;-80
2022/04/26 06:26:33;;;;;;;2.28;1.95;;;24.30;43.90;;;;;;5113307;27;20058;-79
2022/04/26 06:28:59;;;;;;;2.60;1.98;;;24.60;42.60;;;;;;5131557;27;20080;-79
2022/04/26 06:31:24;;;;;;;2.80;2.10;;;24.90;41.60;;;;;;5112972;27;20039;-79
2022/04/26 06:33:50;;;;;;;2.38;1.90;;;25.10;41.00;;;;;;5112952;27;20035;-80
2022/04/26 06:36:16;;;;;;;2.63;1.65;;;25.60;41.00;;;;;;5112853;27;20126;-80
2022/04/26 06:38:42;;;;;;;2.40;1.40;;;25.60;39.50;;;;;;5112546;27;20038;-80
2022/04/26 06:41:07;;;;;;;1.80;1.20;;;25.70;39.20;;;;;;5112742;27;20589;-83
2022/04/26 06:43:34;;;;;;;2.05;1.40;;;26.00;38.00;;;;;;5115175;27;20035;-84
2022/04/26 06:46:00;;;;;;;3.13;2.20;;;25.90;38.00;;;;;;5114446;27;20029;-83
2022/04/26 06:48:26;;;;;;;2.00;1.70;;;25.90;37.30;;;;;;5113158;27;20411;-82
2022/04/26 06:50:55;;;;;;;2.15;1.73;;;25.70;38.10;;;;;;5113285;27;20479;-82
2022/04/26 06:53:21;;;;;;;2.10;1.50;;;26.00;37.10;;;;;;5131704;27;20035;-82
2022/04/26 06:55:46;;;;;;;5.22;1.27;;;25.90;37.00;;;;;;5131569;27;20503;-82
2022/04/26 06:58:12;;;;;;;3.25;1.73;;;25.80;37.40;;;;;;5113226;27;20046;-82
2022/04/26 07:00:38;;;;;;;2.72;1.77;;;25.90;37.30;;;;;;5114792;27;20023;-84
2022/04/26 07:03:04;;;;;;;3.47;1.30;;;26.10;36.50;;;;;;5114974;27;20088;-83
2022/04/26 07:05:30;;;;;;;3.42;1.80;;;26.00;36.60;;;;;;5115176;27;20026;-85
2022/04/26 07:07:56;;;;;;;4.57;1.60;;;26.00;37.00;;;;;;5113564;27;20027;-83
2022/04/26 07:10:22;;;;;;;3.25;1.90;;;25.90;36.90;;;;;;5114170;27;20031;-83
2022/04/26 07:12:48;;;;;;;4.05;1.90;;;26.20;36.40;;;;;;5113943;27;20208;-83
2022/04/26 07:15:14;;;;;;;6.43;2.03;;;25.60;35.90;;;;;;5113562;27;20523;-83
2022/04/26 07:17:40;;;;;;;2.65;1.85;;;25.80;37.70;;;;;;5113961;27;20039;-83
2022/04/26 07:20:08;;;;;;;2.38;1.48;;;26.00;36.10;;;;;;5113425;27;20023;-83
2022/04/26 07:22:36;;;;;;;1.75;1.30;;;25.90;37.00;;;;;;5132227;27;20483;-84
2022/04/26 07:25:04;;;;;;;3.83;1.40;;;25.90;36.10;;;;;;5105593;28;20034;-82
2022/04/26 07:27:29;;;;;;;3.63;1.88;;;26.10;35.30;;;;;;5112011;27;20072;-87
2022/04/26 07:29:55;;;;;;;5.82;1.60;;;25.60;35.70;;;;;;5115649;27;20019;-87
2022/04/26 07:34:20;;;;;;;2.78;2.13;;;25.60;37.50;;;;;;5116497;27;20023;-88
2022/04/26 07:35:09;;;;;;;6.65;2.08;;;26.00;36.90;;;;;;5134071;27;20058;-86
2022/04/26 07:37:35;;;;;;;3.50;1.42;;;25.70;36.70;;;;;;5116280;27;20042;-86
2022/04/26 07:40:01;;;;;;;1.83;1.40;;;25.80;37.30;;;;;;5115646;27;20301;-82
2022/04/26 07:42:26;;;;;;;2.10;1.65;;;26.10;37.40;;;;;;5112905;27;20027;-82
2022/04/26 07:44:52;;;;;;;5.80;1.75;;;26.40;36.30;;;;;;5130092;27;20035;-79
2022/04/26 07:47:22;;;;;;;3.78;1.67;;;26.80;34.90;;;;;;5123630;27;20021;-78
2022/04/26 07:49:48;;;;;;;1.73;1.30;;;27.10;33.90;;;;;;5113934;27;20110;-79
2022/04/26 07:52:15;;;;;;;2.35;1.50;;;27.10;33.80;;;;;;5125013;27;20509;-86
2022/04/26 07:54:42;;;;;;;10.98;1.60;;;27.30;33.80;;;;;;5114546;27;20092;-85
2022/04/26 07:57:08;;;;;;;1.55;1.20;;;27.10;33.00;;;;;;5114738;27;20531;-86
2022/04/26 07:59:33;;;;;;;2.60;1.50;;;27.10;32.90;;;;;;5114206;27;20095;-86
2022/04/26 08:01:59;;;;;;;3.20;1.50;;;26.80;33.50;;;;;;5133448;27;20547;-87
2022/04/26 08:04:25;;;;;;;2.75;1.35;;;27.20;33.50;;;;;;5115716;27;20127;-87
2022/04/26 08:06:50;;;;;;;2.10;1.75;;;27.50;33.80;;;;;;5114729;27;20480;-83
2022/04/26 08:09:16;;;;;;;4.32;1.48;;;27.60;32.70;;;;;;5114388;27;20065;-84
2022/04/26 08:11:41;;;;;;;2.20;1.67;;;27.60;33.60;;;;;;5111529;28;20058;-84
2022/04/26 08:14:07;;;;;;;2.72;1.90;;;27.80;32.30;;;;;;5096223;28;20035;-84
2022/04/26 08:16:33;;;;;;;3.88;1.77;;;28.00;32.10;;;;;;5092030;28;20488;-83
2022/04/26 08:18:59;;;;;;;2.17;1.63;;;28.30;30.60;;;;;;5093896;28;20050;-83
2022/04/26 08:21:25;;;;;;;2.10;1.73;;;27.60;31.80;;;;;;5093471;28;20216;-85
2022/04/26 08:29:19;;;;;;;2.95;1.70;;;28.40;31.40;;;;;;5101325;28;20089;-83
2022/04/26 08:31:45;;;;;;;1.95;1.42;;;28.20;31.60;;;;;;5100275;28;20051;-83
2022/04/26 08:34:11;;;;;;;2.63;2.15;;;28.40;30.50;;;;;;5096573;28;20085;-83
2022/04/26 08:36:36;;;;;;;3.30;1.50;;;27.40;30.90;;;;;;5096548;28;20130;-83
2022/04/26 08:39:03;;;;;;;5.05;1.38;;;27.50;30.90;;;;;;5094099;28;20130;-85
2022/04/26 08:41:29;;;;;;;2.30;1.70;;;27.40;32.10;;;;;;5111852;28;20020;-84
2022/04/26 08:43:55;;;;;;;1.88;1.52;;;27.80;32.00;;;;;;5093445;28;20035;-84
2022/04/26 08:46:21;;;;;;;2.30;1.30;;;27.80;31.30;;;;;;5093631;28;20036;-84
2022/04/26 08:51:31;;;;;;;1.98;1.30;;;27.90;31.50;;;;;;5111565;28;20096;-84
2022/04/26 08:53:57;;;;;;;1.80;1.30;;;27.90;30.70;;;;;;5093339;28;20020;-84
2022/04/26 08:56:23;;;;;;;3.83;1.45;;;27.90;30.30;;;;;;5082339;28;20055;-85
2022/04/26 08:58:50;;;;;;;2.40;1.13;;;27.60;30.20;;;;;;5071359;28;20143;-85
2022/04/26 09:01:22;;;;;;;1.88;1.40;;;27.40;30.80;;;;;;5070195;28;20454;-84
2022/04/26 09:03:54;;;;;;;1.80;1.17;;;27.50;30.30;;;;;;5069786;28;20028;-85
2022/04/26 09:06:39;;;;;;;2.00;1.27;;;27.80;30.80;;;;;;5069652;28;20032;-84
2022/04/26 09:09:07;;;;;;;3.65;1.27;;;27.90;30.30;;;;;;5069964;28;20028;-84
2022/04/26 09:11:34;;;;;;;10.02;1.20;;;28.00;28.50;;;;;;5070881;28;20588;-84
2022/04/26 09:14:05;;;;;;;2.78;1.63;;;27.60;28.80;;;;;;5069516;28;20081;-84
2022/04/26 09:16:30;;;;;;;5.55;1.85;;;27.40;30.50;;;;;;5069930;28;20021;-83
2022/04/26 09:19:02;;;;;;;4.03;1.10;;;27.30;30.40;;;;;;5069052;28;20506;-84
2022/04/26 09:21:29;;;;;;;2.22;1.08;;;27.80;30.50;;;;;;5067481;28;20046;-84
2022/04/26 09:24:14;;;;;;;1.42;1.00;;;28.00;28.40;;;;;;5069908;28;20028;-84
2022/04/26 09:26:40;;;;;;;1.00;0.80;;;27.20;29.40;;;;;;5069818;28;20123;-85
2022/04/26 09:29:08;;;;;;;1.63;0.93;;;27.20;29.50;;;;;;5068935;28;20137;-84
2022/04/26 09:31:38;;;;;;;1.42;0.90;;;27.30;29.00;;;;;;5073079;28;20029;-84
2022/04/26 09:34:10;;;;;;;1.63;1.00;;;27.30;30.50;;;;;;5074565;28;20146;-84
2022/04/26 09:36:50;;;;;;;1.63;1.05;;;27.70;29.70;;;;;;5074621;28;20039;-84
2022/04/26 09:39:18;;;;;;;1.42;0.98;;;28.20;29.60;;;;;;5078479;28;20051;-85
2022/04/26 09:41:49;;;;;;;2.38;0.90;;;28.60;29.00;;;;;;5074577;28;20021;-85
2022/04/26 09:44:15;;;;;;;1.50;1.00;;;28.80;28.40;;;;;;5095437;28;20028;-84
2022/04/26 09:46:40;;;;;;;1.20;0.90;;;28.30;27.20;;;;;;5094958;28;20116;-86
2022/04/26 09:49:09;;;;;;;1.40;1.08;;;27.70;28.40;;;;;;5074830;28;20033;-86
2022/04/26 09:51:39;;;;;;;1.20;0.85;;;27.90;28.60;;;;;;5073565;28;20025;-85
2022/04/26 09:54:06;;;;;;;2.75;1.00;;;27.70;28.90;;;;;;5073311;28;20028;-85
2022/04/26 09:56:32;;;;;;;2.30;1.08;;;28.00;29.00;;;;;;5072820;28;20056;-85
2022/04/26 09:59:00;;;;;;;2.08;0.95;;;28.20;28.90;;;;;;5072641;28;20048;-86
2022/04/26 10:01:35;;;;;;;2.05;1.30;;;28.70;28.20;;;;;;5074179;28;20106;-84
2022/04/26 10:04:03;;;;;;;1.10;0.73;;;28.60;26.70;;;;;;5073261;28;20032;-85
2022/04/26 10:06:35;;;;;;;3.50;1.13;;;27.50;27.30;;;;;;5074338;28;20570;-84
2022/04/26 10:09:06;;;;;;;1.23;0.77;;;27.10;28.50;;;;;;5073168;28;20779;-85
2022/04/26 10:11:31;;;;;;;1.92;0.90;;;27.20;29.20;;;;;;5072722;28;20028;-84
2022/04/26 10:14:00;;;;;;;3.17;1.08;;;26.80;29.80;;;;;;5073786;28;20020;-84
2022/04/26 10:16:26;;;;;;;1.58;1.00;;;26.30;30.10;;;;;;5073367;28;20024;-83
2022/04/26 10:19:01;;;;;;;2.70;0.98;;;25.40;29.50;;;;;;5074220;28;20047;-84
2022/04/26 10:21:27;;;;;;;1.42;1.08;;;24.80;32.20;;;;;;5073401;28;20031;-83
2022/04/26 10:24:01;;;;;;;2.75;1.13;;;24.20;31.70;;;;;;5073015;28;20036;-83
2022/04/26 10:26:27;;;;;;;1.27;0.80;;;23.90;33.30;;;;;;5072290;28;20647;-83
2022/04/26 10:28:59;;;;;;;3.38;0.90;;;23.70;34.90;;;;;;5072884;28;20070;-84
2022/04/26 10:31:39;;;;;;;2.42;1.00;;;23.60;34.80;;;;;;5073311;28;20039;-84
2022/04/26 10:34:17;;;;;;;1.25;0.77;;;23.50;34.70;;;;;;5074323;28;20029;-83
2022/04/26 10:36:44;;;;;;;0.90;0.63;;;23.40;35.20;;;;;;5074238;28;20103;-83
2022/04/26 10:39:09;;;;;;;1.10;0.77;;;23.20;35.00;;;;;;5072714;28;20123;-83
2022/04/26 10:41:40;;;;;;;4.60;1.40;;;23.00;36.00;;;;;;5072364;28;20573;-84
2022/04/26 10:44:19;;;;;;;4.80;1.40;;;22.90;35.60;;;;;;5073334;28;20032;-85
2022/04/26 10:47:08;;;;;;;1.88;1.02;;;22.70;35.20;;;;;;5072869;28;20020;-84
2022/04/26 10:49:39;;;;;;;3.83;0.70;;;22.50;36.30;;;;;;5073019;28;20082;-86
2022/04/26 10:52:23;;;;;;;2.88;1.10;;;22.50;36.70;;;;;;5073269;28;20040;-84
2022/04/26 10:54:55;;;;;;;3.40;0.73;;;22.60;36.80;;;;;;5073372;28;20021;-85
2022/04/26 10:57:23;;;;;;;1.27;0.82;;;22.60;36.30;;;;;;5073219;28;20505;-86
2022/04/26 10:59:54;;;;;;;2.00;1.05;;;22.70;37.30;;;;;;5073522;28;20040;-85
2022/04/26 11:02:21;;;;;;;1.35;0.88;;;22.70;37.00;;;;;;5072952;28;20082;-85
2022/04/26 11:04:59;;;;;;;18.05;2.80;;;22.70;37.20;;;;;;5072919;28;20024;-85
2022/04/26 11:07:26;;;;;;;42.22;8.00;;;22.70;35.80;;;;;;5072769;28;20035;-85
2022/04/26 11:09:54;;;;;;;20.20;4.45;;;22.60;35.80;;;;;;5072726;28;20029;-85
2022/04/26 11:12:23;;;;;;;1.98;1.42;;;22.50;35.80;;;;;;5072488;28;20059;-85
2022/04/26 11:14:52;;;;;;;3.60;1.00;;;22.40;36.20;;;;;;5073376;28;20052;-84
2022/04/26 11:17:19;;;;;;;1.25;0.60;;;22.40;36.90;;;;;;5072076;28;20036;-82
2022/04/26 11:19:53;;;;;;;1.13;0.60;;;22.20;36.70;;;;;;5072157;28;20037;-83
2022/04/26 11:22:20;;;;;;;1.55;0.60;;;22.20;36.50;;;;;;5072325;28;20091;-83
2022/04/26 11:30:35;;;;;;;0.90;0.50;;;22.20;35.90;;;;;;5081596;28;20059;-85
2022/04/26 11:33:25;;;;;;;1.80;1.00;;;22.00;33.50;;;;;;5071983;28;20484;-84
2022/04/26 11:36:02;;;;;;;2.28;1.10;;;22.00;34.10;;;;;;5070889;28;20597;-84
2022/04/26 11:38:28;;;;;;;3.45;0.63;;;22.00;33.90;;;;;;5071620;28;20086;-85
2022/04/26 11:40:58;;;;;;;1.17;0.68;;;21.90;30.10;;;;;;5072168;28;20027;-85
2022/04/26 11:43:26;;;;;;;3.88;0.80;;;21.70;30.80;;;;;;5072093;28;20028;-85
2022/04/26 11:45:55;;;;;;;1.88;0.57;;;21.60;31.40;;;;;;5072124;28;20448;-85
2022/04/26 11:48:22;;;;;;;0.98;0.50;;;21.60;33.10;;;;;;5071630;28;20081;-84
2022/04/26 11:50:50;;;;;;;1.23;0.47;;;21.70;34.10;;;;;;5072036;28;20052;-85
2022/04/26 11:53:18;;;;;;;2.15;0.55;;;21.70;33.60;;;;;;5071402;28;20039;-84
2022/04/26 11:55:44;;;;;;;1.42;0.40;;;21.80;31.90;;;;;;5076874;28;20028;-85
2022/04/26 11:58:14;;;;;;;1.95;0.40;;;21.90;30.00;;;;;;5112388;28;20036;-86
2022/04/26 12:01:04;;;;;;;0.80;0.38;;;21.90;29.80;;;;;;5093082;28;20020;-85
2022/04/26 12:03:46;;;;;;;0.52;0.40;;;21.80;29.20;;;;;;5095273;28;20036;-86
2022/04/26 12:06:13;;;;;;;0.73;0.50;;;21.70;29.50;;;;;;5113330;28;20016;-85
2022/04/26 12:08:43;;;;;;;1.13;0.40;;;21.70;29.90;;;;;;5095543;28;20037;-85
2022/04/26 12:11:20;;;;;;;0.95;0.45;;;21.70;29.30;;;;;;5095150;28;20042;-86
2022/04/26 12:14:16;;;;;;;3.47;0.60;;;21.60;29.60;;;;;;5095107;28;20024;-86
2022/04/26 12:16:47;;;;;;;1.95;0.43;;;21.60;29.90;;;;;;5088321;28;20031;-85
2022/04/26 12:19:13;;;;;;;1.30;0.40;;;21.60;32.90;;;;;;5094711;28;20065;-85
2022/04/26 12:21:46;;;;;;;2.13;0.47;;;21.50;32.10;;;;;;5095042;28;20023;-85
2022/04/26 12:24:22;;;;;;;0.82;0.30;;;21.60;32.00;;;;;;5095011;28;20118;-86
2022/04/26 12:26:56;;;;;;;0.60;0.40;;;21.50;32.00;;;;;;5095153;28;20023;-85
2022/04/26 12:29:27;;;;;;;1.40;0.30;;;21.50;32.10;;;;;;5095118;28;20427;-85
2022/04/26 12:31:53;;;;;;;1.48;0.40;;;21.50;30.80;;;;;;5094815;28;20498;-85
2022/04/26 12:34:31;;;;;;;0.50;0.30;;;21.50;32.40;;;;;;5113321;28;20019;-85
2022/04/26 12:37:15;;;;;;;0.93;0.40;;;21.50;31.40;;;;;;5094816;28;20028;-85
2022/04/26 12:39:47;;;;;;;0.77;0.40;;;21.50;31.60;;;;;;5095115;28;20039;-85
2022/04/26 12:42:29;;;;;;;1.75;0.52;;;21.50;32.10;;;;;;5094922;28;20035;-86
2022/04/26 12:45:00;;;;;;;0.82;0.40;;;21.50;31.80;;;;;;5094564;28;20380;-84
2022/04/26 12:50:35;;;;;;;5.97;0.30;;;21.50;32.90;;;;;;5112962;28;20082;-85
2022/04/26 12:53:04;;;;;;;0.88;0.35;;;21.40;31.00;;;;;;5094462;28;20496;-83
2022/04/26 12:55:34;;;;;;;2.05;0.47;;;21.40;30.20;;;;;;5094484;28;20111;-86
2022/04/26 12:58:04;;;;;;;3.42;0.40;;;21.30;30.60;;;;;;5093882;28;20035;-85
2022/04/26 13:00:31;;;;;;;1.05;0.38;;;21.20;31.60;;;;;;5094810;28;20024;-85
2022/04/26 13:03:00;;;;;;;1.35;0.40;;;21.20;31.90;;;;;;5094472;28;20039;-86
2022/04/26 13:05:27;;;;;;;1.33;0.40;;;21.20;33.10;;;;;;5097000;28;20609;-86
2022/04/26 13:07:53;;;;;;;0.45;0.30;;;21.20;32.50;;;;;;5098895;28;20027;-85
2022/04/26 13:10:20;;;;;;;0.80;0.40;;;21.00;30.80;;;;;;5098343;28;20502;-86
2022/04/26 13:12:46;;;;;;;0.93;0.40;;;21.00;32.20;;;;;;5098582;28;20034;-85
2022/04/26 13:15:15;;;;;;;0.88;0.40;;;20.90;31.80;;;;;;5116144;28;20046;-85
2022/04/26 13:17:41;;;;;;;1.17;0.45;;;20.90;32.30;;;;;;5116326;28;20488;-86
2022/04/26 13:20:10;;;;;;;0.95;0.43;;;20.90;32.80;;;;;;5116475;28;20498;-85
2022/04/26 13:22:37;;;;;;;1.20;0.40;;;20.80;32.00;;;;;;5098341;28;20080;-85
2022/04/26 13:25:07;;;;;;;1.65;0.50;;;20.60;32.30;;;;;;5098211;28;20039;-86
2022/04/26 13:27:34;;;;;;;0.52;0.40;;;20.60;33.90;;;;;;5098059;28;20034;-85
2022/04/26 13:30:00;;;;;;;1.10;0.50;;;20.70;33.20;;;;;;5098183;28;20043;-84
2022/04/26 13:32:29;;;;;;;1.02;0.50;;;20.70;33.50;;;;;;5097981;28;20035;-85
2022/04/26 13:34:55;;;;;;;0.75;0.40;;;20.80;35.90;;;;;;5115664;28;20051;-85
2022/04/26 13:37:21;;;;;;;1.30;0.50;;;20.80;35.80;;;;;;5097881;28;20063;-86
2022/04/26 13:39:49;;;;;;;0.70;0.40;;;20.90;35.60;;;;;;5097926;28;20015;-86
2022/04/26 13:42:15;;;;;;;1.23;0.52;;;20.90;34.80;;;;;;5097739;28;20408;-85
2022/04/26 13:44:42;;;;;;;1.50;0.50;;;20.90;34.80;;;;;;5097674;28;20028;-85
2022/04/26 13:47:08;;;;;;;0.68;0.40;;;20.80;35.00;;;;;;5097468;28;20472;-86
2022/04/26 13:49:39;;;;;;;1.23;0.47;;;20.90;35.50;;;;;;5097607;28;20023;-86
2022/04/26 13:52:07;;;;;;;2.35;0.57;;;21.00;34.40;;;;;;5097556;28;20090;-85
2022/04/26 13:54:33;;;;;;;0.90;0.45;;;20.90;34.40;;;;;;5097398;28;20693;-86
2022/04/26 13:56:59;;;;;;;2.95;0.70;;;20.90;34.70;;;;;;5097698;28;20075;-88
2022/04/26 13:59:25;;;;;;;1.50;0.45;;;20.90;34.30;;;;;;5097614;28;20063;-85
2022/04/26 14:01:53;;;;;;;0.95;0.50;;;20.80;34.90;;;;;;5097749;28;20032;-86
2022/04/26 14:04:19;;;;;;;4.50;0.40;;;20.90;34.50;;;;;;5115955;28;20065;-85
2022/04/26 14:06:46;;;;;;;1.35;0.60;;;20.90;34.00;;;;;;5097319;28;20032;-86
2022/04/26 14:09:12;;;;;;;4.05;0.65;;;20.80;33.80;;;;;;5115686;28;20053;-88
2022/04/26 14:11:38;;;;;;;1.80;0.55;;;20.80;34.40;;;;;;5097649;28;20122;-87
2022/04/26 14:22:16;;;;;;;1.98;0.50;;;20.80;34.70;;;;;;5113802;28;20076;-84
2022/04/26 14:24:43;;;;;;;1.08;0.50;;;20.80;35.10;;;;;;5095772;28;20031;-82
2022/04/26 14:27:09;;;;;;;1.15;0.50;;;20.80;34.80;;;;;;5095438;28;20505;-83
2022/04/26 14:29:35;;;;;;;0.70;0.40;;;20.80;35.40;;;;;;5095877;28;20020;-84
2022/04/26 14:32:00;;;;;;;1.02;0.43;;;20.80;35.40;;;;;;5095228;28;20036;-82
2022/04/26 14:34:26;;;;;;;1.38;0.50;;;20.80;34.10;;;;;;5095154;28;20056;-86
2022/04/26 14:36:53;;;;;;;1.45;0.30;;;20.70;33.80;;;;;;5094636;28;20423;-82
2022/04/26 14:39:18;;;;;;;0.95;0.40;;;20.60;34.00;;;;;;5094113;28;20027;-84
2022/04/26 14:41:44;;;;;;;1.60;0.40;;;20.60;33.00;;;;;;5096464;28;20035;-85
2022/04/26 14:44:10;;;;;;;0.85;0.32;;;20.60;31.90;;;;;;5095863;28;20019;-85
2022/04/26 14:46:36;;;;;;;6.38;0.50;;;20.60;32.00;;;;;;5096176;28;20407;-84
2022/04/26 14:49:04;;;;;;;5.43;0.57;;;20.50;33.00;;;;;;5096182;28;20057;-87
2022/04/26 14:51:29;;;;;;;2.15;0.55;;;20.50;34.00;;;;;;5097019;28;20518;-89
2022/04/26 14:53:55;;;;;;;1.80;0.50;;;20.60;33.80;;;;;;5096029;28;20028;-84
2022/04/26 14:56:21;;;;;;;1.42;0.50;;;20.60;33.80;;;;;;5095037;28;20479;-83
2022/04/26 14:58:49;;;;;;;1.88;0.47;;;20.60;34.10;;;;;;5095451;28;20041;-85
2022/04/26 15:01:15;;;;;;;0.88;0.45;;;20.50;34.40;;;;;;5094812;28;20020;-82
2022/04/26 15:03:40;;;;;;;1.10;0.43;;;20.50;33.70;;;;;;5112066;28;20039;-82
2022/04/26 15:06:06;;;;;;;1.65;0.50;;;20.50;33.80;;;;;;5094483;28;20023;-83
2022/04/26 15:11:16;;;;;;;0.88;0.50;;;20.40;33.60;;;;;;5111769;28;20163;-81
2022/04/26 15:16:37;;;;;;;0.95;0.50;;;20.30;33.00;;;;;;5111931;28;20081;-81
2022/04/26 15:19:04;;;;;;;0.95;0.40;;;20.30;33.60;;;;;;5093232;28;20205;-81
2022/04/26 15:21:29;;;;;;;0.80;0.32;;;20.30;33.20;;;;;;5093344;28;20030;-82
2022/04/26 15:23:55;;;;;;;1.15;0.50;;;20.30;33.30;;;;;;5092932;28;20027;-81
2022/04/26 15:26:22;;;;;;;1.30;0.32;;;20.20;33.00;;;;;;5092925;28;20105;-81
2022/04/26 15:28:47;;;;;;;0.75;0.43;;;20.30;33.30;;;;;;5092871;28;20552;-81
2022/04/26 15:31:18;;;;;;;0.90;0.30;;;20.30;31.90;;;;;;5092915;28;20023;-81
2022/04/26 15:33:45;;;;;;;1.58;0.30;;;20.20;32.10;;;;;;5093177;28;20496;-82
2022/04/26 15:36:10;;;;;;;0.82;0.40;;;20.20;31.70;;;;;;5094517;28;20357;-85
2022/04/26 15:38:36;;;;;;;0.60;0.40;;;20.10;30.90;;;;;;5094947;28;20028;-85
2022/04/26 15:41:05;;;;;;;1.15;0.40;;;20.10;31.00;;;;;;5113090;28;20039;-85
2022/04/26 15:43:31;;;;;;;0.75;0.32;;;20.00;32.10;;;;;;5094802;28;20028;-83
2022/04/26 15:45:57;;;;;;;1.17;0.50;;;20.00;31.90;;;;;;5093896;28;20125;-83
2022/04/26 15:48:24;;;;;;;0.63;0.30;;;20.00;31.60;;;;;;5111071;28;20041;-82
2022/04/26 15:50:50;;;;;;;5.07;0.40;;;19.90;31.60;;;;;;5093613;28;20027;-84
2022/04/26 15:53:15;;;;;;;1.52;0.50;;;19.90;31.10;;;;;;5093601;28;20026;-83
2022/04/26 15:55:41;;;;;;;1.30;0.50;;;19.80;31.70;;;;;;5093723;28;20027;-84
2022/04/26 15:58:08;;;;;;;0.70;0.40;;;19.80;32.30;;;;;;5093062;28;20053;-82
2022/04/26 16:00:34;;;;;;;1.02;0.50;;;19.80;33.10;;;;;;5093761;28;20050;-86
2022/04/26 16:03:01;;;;;;;0.70;0.40;;;19.70;32.40;;;;;;5092163;28;20023;-81
2022/04/26 16:05:27;;;;;;;1.15;0.50;;;19.60;32.50;;;;;;5092067;28;20031;-82
2022/04/26 16:07:52;;;;;;;1.05;0.50;;;19.60;33.00;;;;;;5092350;28;20031;-82
2022/04/26 16:21:15;;;;;;;2.03;0.35;;;19.40;33.80;;;;;;5113197;28;20102;-86
2022/04/26 16:23:41;;;;;;;2.38;0.50;;;19.40;34.00;;;;;;5094750;28;20118;-86
2022/04/26 16:26:07;;;;;;;1.33;0.30;;;19.30;33.80;;;;;;5113022;28;20502;-86
2022/04/26 16:28:34;;;;;;;2.30;0.40;;;19.20;33.80;;;;;;5094441;28;20028;-87
2022/04/26 16:31:00;;;;;;;0.80;0.38;;;19.20;33.70;;;;;;5112833;28;20111;-86
2022/04/26 16:33:26;;;;;;;0.65;0.50;;;19.20;33.60;;;;;;5095225;28;20547;-86
2022/04/26 16:35:52;;;;;;;1.08;0.40;;;19.10;33.80;;;;;;5095387;28;20059;-87
2022/04/26 16:38:18;;;;;;;0.73;0.50;;;19.10;34.10;;;;;;5095604;28;20105;-86
2022/04/26 16:40:46;;;;;;;0.77;0.40;;;19.10;34.00;;;;;;5098353;28;20080;-87
2022/04/26 16:43:15;;;;;;;1.10;0.40;;;19.00;34.20;;;;;;5099356;28;20051;-88
2022/04/26 16:45:40;;;;;;;0.85;0.50;;;18.90;34.60;;;;;;5099236;28;20031;-87
2022/04/26 16:48:06;;;;;;;0.82;0.45;;;18.90;35.00;;;;;;5099211;28;20035;-87
2022/04/26 16:50:32;;;;;;;1.20;0.50;;;18.90;35.50;;;;;;5099347;28;20027;-86
2022/04/26 16:53:00;;;;;;;1.70;0.45;;;18.80;35.90;;;;;;5099796;28;20011;-87
2022/04/26 16:55:26;;;;;;;1.45;0.60;;;18.80;37.00;;;;;;5099390;28;20023;-87
2022/04/26 16:57:51;;;;;;;3.60;0.50;;;18.70;36.50;;;;;;5098614;28;20057;-87
2022/04/26 17:00:17;;;;;;;4.18;0.57;;;18.60;36.90;;;;;;5098857;28;20035;-88
2022/04/26 17:02:43;;;;;;;1.85;0.60;;;18.60;37.20;;;;;;5098748;28;20027;-86
2022/04/26 17:05:08;;;;;;;1.20;0.50;;;18.50;37.70;;;;;;5098993;28;20498;-87
2022/04/26 17:07:34;;;;;;;1.45;0.40;;;18.30;38.00;;;;;;5099071;28;20019;-86
2022/04/26 17:10:00;;;;;;;1.80;0.55;;;18.20;38.50;;;;;;5098997;28;20560;-87
2022/04/26 17:12:26;;;;;;;1.05;0.55;;;18.10;39.20;;;;;;5098779;28;20038;-86
2022/04/26 17:14:54;;;;;;;1.42;0.60;;;17.90;39.90;;;;;;5098679;28;20028;-83